createdAt,value
2024-01-20T00:05:51.898Z,95.10
2024-01-20T00:15:56.370Z,94.93
2024-01-20T00:25:59.694Z,94.58
2024-01-20T00:36:04.846Z,94.43
2024-01-20T00:46:07.911Z,94.02
2024-01-20T00:56:12.370Z,94.41
2024-01-20T01:06:15.610Z,94.24
2024-01-20T01:16:20.633Z,93.98
2024-01-20T01:26:26.387Z,94.56
2024-01-20T01:36:32.061Z,94.66
2024-01-20T01:46:35.871Z,93.41
2024-01-20T01:56:42.645Z,94.53
2024-01-20T02:06:46.362Z,93.27
2024-01-20T02:16:51.844Z,92.99
2024-01-20T02:26:56.446Z,92.72
2024-01-20T02:36:59.608Z,92.38
2024-01-20T02:47:04.376Z,92.36
2024-01-20T02:57:07.729Z,92.76
2024-01-20T03:07:12.290Z,93.63
2024-01-20T03:17:15.374Z,92.29
2024-01-20T03:27:20.819Z,92.16
2024-01-20T03:37:23.881Z,92.24
2024-01-20T03:47:30.335Z,91.77
2024-01-20T03:57:34.356Z,91.82
2024-01-20T04:07:39.810Z,90.25
2024-01-20T04:17:42.962Z,90.41
2024-01-20T04:27:47.326Z,91.11
2024-01-20T04:37:51.302Z,91.43
2024-01-20T04:47:55.969Z,90.53
2024-01-20T04:57:59.243Z,90.70
2024-01-20T05:08:03.980Z,89.68
2024-01-20T05:18:07.767Z,89.72
2024-01-20T05:28:12.489Z,90.00
2024-01-20T05:38:15.684Z,89.49
2024-01-20T05:48:20.232Z,90.21
2024-01-20T05:58:23.935Z,90.25
2024-01-20T06:08:29.044Z,90.75
2024-01-20T06:18:33.080Z,89.61
2024-01-20T06:28:37.908Z,89.37
2024-01-20T06:38:41.040Z,87.87
2024-01-20T06:48:46.144Z,88.32
2024-01-20T06:58:49.382Z,88.68
2024-01-20T07:08:54.065Z,89.23
2024-01-20T07:18:57.352Z,88.92
2024-01-20T07:29:02.053Z,88.57
2024-01-20T07:39:05.825Z,87.84
2024-01-20T07:49:10.494Z,89.65
2024-01-20T07:59:13.981Z,88.15
2024-01-20T08:09:18.561Z,87.95
2024-01-20T08:19:21.974Z,87.32
2024-01-20T08:29:26.691Z,87.16
2024-01-20T08:39:29.696Z,85.92
2024-01-20T08:49:33.992Z,86.11
2024-01-20T08:59:37.097Z,86.64
2024-01-20T09:09:41.583Z,87.31
2024-01-20T09:19:46.033Z,86.01
2024-01-20T09:29:50.566Z,84.48
2024-01-20T09:39:53.559Z,84.29
2024-01-20T09:49:58.133Z,84.20
2024-01-20T10:00:06.406Z,84.13
2024-01-20T10:10:22.855Z,82.42
2024-01-20T10:20:27.661Z,80.80
2024-01-20T10:30:31.996Z,81.17
2024-01-20T10:40:41.600Z,79.88
2024-01-20T10:50:52.267Z,78.38
2024-01-20T11:00:56.437Z,92.93
2024-01-20T11:11:01.773Z,77.12
2024-01-20T11:21:05.964Z,77.00
2024-01-20T11:31:19.503Z,76.87
2024-01-20T11:41:22.807Z,77.64
2024-01-20T11:51:27.439Z,73.87
2024-01-20T12:01:30.683Z,72.51
2024-01-20T12:11:36.780Z,70.99
2024-01-20T12:22:30.621Z,72.50
2024-01-20T12:32:35.316Z,71.21
2024-01-20T12:42:41.261Z,71.63
2024-01-20T12:52:46.523Z,73.50
2024-01-20T13:02:49.684Z,71.77
2024-01-20T13:12:54.273Z,74.20
2024-01-20T13:22:57.513Z,75.01
2024-01-20T13:33:02.202Z,75.28
2024-01-20T13:43:05.617Z,74.52
2024-01-20T13:53:10.691Z,75.13
2024-01-20T14:03:14.190Z,74.72
2024-01-20T14:13:18.911Z,76.41
2024-01-20T14:23:23.425Z,77.91
2024-01-20T14:33:28.247Z,78.81
2024-01-20T14:43:32.530Z,78.84
2024-01-20T14:53:36.938Z,80.28
2024-01-20T15:03:40.287Z,80.72
2024-01-20T15:13:45.976Z,81.45
2024-01-20T15:23:50.766Z,82.13
2024-01-20T15:33:57.828Z,81.22
2024-01-20T15:44:01.549Z,82.94
2024-01-20T15:54:06.090Z,84.59
2024-01-20T16:04:10.070Z,85.58
2024-01-20T16:14:14.664Z,85.28
2024-01-20T16:24:17.924Z,87.54
2024-01-20T16:34:23.727Z,88.25
2024-01-20T16:44:27.201Z,89.25
2024-01-20T16:54:32.601Z,89.77
2024-01-20T17:04:35.876Z,88.77
2024-01-20T17:14:40.903Z,89.51
2024-01-20T17:24:44.745Z,90.24
2024-01-20T17:34:49.591Z,90.00
2024-01-20T17:44:53.262Z,90.02
2024-01-20T17:54:58.438Z,90.38
2024-01-20T18:05:02.066Z,89.87
2024-01-20T18:15:08.545Z,89.65
2024-01-20T18:25:11.963Z,90.36
2024-01-20T18:35:16.826Z,90.67
2024-01-20T18:45:20.524Z,90.41
2024-01-20T18:55:25.023Z,90.83
2024-01-20T19:05:28.694Z,91.16
2024-01-20T19:15:33.228Z,91.60
2024-01-20T19:25:36.525Z,90.91
2024-01-20T19:35:41.320Z,91.18
2024-01-20T19:45:45.549Z,92.19
2024-01-20T19:55:49.846Z,91.92
2024-01-20T20:05:53.023Z,90.86
2024-01-20T20:15:58.393Z,92.59
2024-01-20T20:26:01.724Z,91.28
2024-01-20T20:36:07.128Z,91.46
2024-01-20T20:46:10.476Z,91.50
2024-01-20T20:56:15.423Z,92.69
2024-01-20T21:06:19.373Z,91.79
2024-01-20T21:16:25.444Z,92.32
2024-01-20T21:26:29.566Z,91.80
2024-01-20T21:36:34.651Z,89.19
2024-01-20T21:46:39.462Z,88.70
2024-01-20T21:56:43.751Z,87.51
2024-01-20T22:06:47.233Z,87.73
2024-01-20T22:16:51.705Z,89.15
2024-01-20T22:26:54.651Z,88.84
2024-01-20T22:36:58.950Z,87.61
2024-01-20T22:47:02.290Z,84.85
2024-01-20T22:57:08.464Z,84.62
2024-01-20T23:07:11.664Z,83.76
2024-01-20T23:17:17.019Z,80.86
2024-01-20T23:27:21.461Z,78.42
2024-01-20T23:37:25.893Z,79.45
2024-01-20T23:47:29.002Z,79.47
2024-01-20T23:57:33.947Z,82.04
